createdAt,value
2018-02-11T00:00:26.335Z,0.58
2018-02-11T00:02:53.817Z,0.61
2018-02-11T00:05:21.307Z,0.62
2018-02-11T00:07:48.772Z,0.62
2018-02-11T00:10:16.236Z,0.61
2018-02-11T00:12:43.764Z,0.60
2018-02-11T00:15:11.231Z,0.59
2018-02-11T00:17:38.742Z,0.60
2018-02-11T00:20:06.216Z,0.56
2018-02-11T00:22:33.689Z,0.61
2018-02-11T00:25:01.169Z,0.57
2018-02-11T00:27:28.641Z,0.61
2018-02-11T00:29:56.111Z,0.53
2018-02-11T00:32:23.598Z,0.62
2018-02-11T00:34:51.054Z,0.66
2018-02-11T00:37:24.004Z,0.55
2018-02-11T00:39:51.482Z,0.51
2018-02-11T00:42:18.932Z,0.51
2018-02-11T00:44:46.476Z,0.46
2018-02-11T00:47:13.940Z,0.57
2018-02-11T00:49:41.443Z,0.55
2018-02-11T00:52:09.111Z,0.55
2018-02-11T00:54:36.634Z,0.49
2018-02-11T00:57:04.114Z,0.51
2018-02-11T00:59:31.582Z,0.47
2018-02-11T01:01:59.105Z,0.50
2018-02-11T01:04:26.618Z,0.54
2018-02-11T01:06:54.095Z,0.62
2018-02-11T01:09:21.612Z,0.56
2018-02-11T01:11:50.092Z,0.52
2018-02-11T01:14:17.579Z,0.46
2018-02-11T01:16:45.065Z,0.46
2018-02-11T01:19:12.519Z,0.65
2018-02-11T01:21:40.104Z,0.56
2018-02-11T01:24:07.581Z,0.53
2018-02-11T01:26:35.081Z,0.51
2018-02-11T01:29:02.597Z,0.52
2018-02-11T01:31:30.092Z,0.50
2018-02-11T01:33:57.595Z,0.57
2018-02-11T01:36:26.185Z,0.67
2018-02-11T01:38:53.678Z,0.64
2018-02-11T01:41:21.154Z,0.58
2018-02-11T01:43:48.654Z,0.52
2018-02-11T01:46:16.156Z,0.44
2018-02-11T01:48:43.663Z,0.43
2018-02-11T01:51:11.122Z,0.38
2018-02-11T01:53:38.602Z,0.51
2018-02-11T01:56:06.096Z,0.44
2018-02-11T01:58:33.562Z,0.47
2018-02-11T02:01:01.070Z,0.46
2018-02-11T02:03:28.575Z,0.40
2018-02-11T02:05:56.038Z,0.38
2018-02-11T02:08:23.520Z,0.36
2018-02-11T02:10:51.036Z,0.37
2018-02-11T02:13:18.508Z,0.31
2018-02-11T02:15:46.631Z,0.32
2018-02-11T02:18:14.146Z,0.40
2018-02-11T02:20:41.643Z,0.35
2018-02-11T02:23:09.098Z,0.30
2018-02-11T02:25:36.563Z,0.39
2018-02-11T02:28:04.027Z,0.31
2018-02-11T02:30:31.475Z,0.36
2018-02-11T02:32:58.967Z,0.34
2018-02-11T02:35:26.521Z,0.42
2018-02-11T02:37:54.012Z,0.46
2018-02-11T02:40:21.496Z,0.42
2018-02-11T02:42:49.014Z,0.30
2018-02-11T02:45:16.571Z,0.30
2018-02-11T02:47:44.043Z,0.29
2018-02-11T02:50:11.523Z,0.25
2018-02-11T02:52:39.004Z,0.26
2018-02-11T02:55:06.487Z,0.26
2018-02-11T02:57:33.973Z,0.33
2018-02-11T03:00:01.446Z,0.31
2018-02-11T03:02:28.919Z,0.36
2018-02-11T03:04:56.389Z,0.45
2018-02-11T03:07:23.864Z,0.38
2018-02-11T03:09:51.345Z,0.38
2018-02-11T03:12:18.806Z,0.33
2018-02-11T03:14:46.328Z,0.35
2018-02-11T03:17:13.818Z,0.30
2018-02-11T03:19:41.304Z,0.32
2018-02-11T03:22:08.764Z,0.33
2018-02-11T03:24:36.505Z,0.27
2018-02-11T03:27:03.958Z,0.29
2018-02-11T03:29:31.414Z,0.28
2018-02-11T03:31:58.899Z,0.27
2018-02-11T03:34:26.358Z,0.30
2018-02-11T03:36:53.820Z,0.28
2018-02-11T03:39:21.298Z,0.34
2018-02-11T03:41:48.769Z,0.32
2018-02-11T03:44:16.240Z,0.30
2018-02-11T03:46:43.694Z,0.29
2018-02-11T03:49:11.159Z,0.31
2018-02-11T03:51:38.645Z,0.27
2018-02-11T03:54:06.128Z,0.26
2018-02-11T03:56:33.624Z,0.24
2018-02-11T03:59:01.105Z,0.35
2018-02-11T04:01:28.550Z,0.38
2018-02-11T04:03:56.121Z,0.38
2018-02-11T04:06:23.595Z,0.40
2018-02-11T04:08:51.055Z,0.40
2018-02-11T04:11:18.514Z,0.37
2018-02-11T04:13:45.976Z,0.33
2018-02-11T04:16:13.463Z,0.34
2018-02-11T04:18:40.982Z,0.32
2018-02-11T04:21:08.440Z,0.31
2018-02-11T04:23:35.910Z,0.33
2018-02-11T04:26:03.400Z,0.31
2018-02-11T04:28:30.921Z,0.28
2018-02-11T04:30:58.375Z,0.38
2018-02-11T04:33:25.856Z,0.34
2018-02-11T04:35:53.311Z,0.39
2018-02-11T04:38:20.802Z,0.31
2018-02-11T04:40:48.260Z,0.28
2018-02-11T04:43:15.767Z,0.30
2018-02-11T04:45:43.218Z,0.31
2018-02-11T04:48:10.703Z,0.33
2018-02-11T04:50:38.175Z,0.32
2018-02-11T04:53:05.627Z,0.40
2018-02-11T04:55:33.095Z,0.39
2018-02-11T04:58:00.569Z,0.38
2018-02-11T05:00:28.023Z,0.41
2018-02-11T05:02:55.484Z,0.39
2018-02-11T05:05:22.948Z,0.36
2018-02-11T05:07:50.423Z,0.46
2018-02-11T05:10:17.893Z,0.42
2018-02-11T05:12:45.372Z,0.48
2018-02-11T05:15:12.847Z,0.52
2018-02-11T05:17:40.308Z,0.45
2018-02-11T05:20:07.830Z,0.49
2018-02-11T05:22:35.297Z,0.41
2018-02-11T05:25:02.761Z,0.44
2018-02-11T05:27:30.233Z,0.47
2018-02-11T05:29:57.715Z,0.56
2018-02-11T05:32:25.175Z,0.44
2018-02-11T05:34:52.659Z,0.43
2018-02-11T05:37:20.119Z,0.38
2018-02-11T05:39:47.606Z,0.42
2018-02-11T05:42:15.088Z,0.37
2018-02-11T05:44:42.548Z,0.37
2018-02-11T05:47:10.038Z,0.45
2018-02-11T05:49:37.486Z,0.41
2018-02-11T05:52:04.950Z,0.41
2018-02-11T05:54:32.484Z,0.40
2018-02-11T05:56:59.949Z,0.35
2018-02-11T05:59:27.451Z,0.28
2018-02-11T06:01:54.910Z,0.28
2018-02-11T06:04:22.381Z,0.24
2018-02-11T06:06:49.869Z,0.13
2018-02-11T06:09:17.522Z,0.03
2018-02-11T06:11:45.015Z,-0.11
2018-02-11T06:14:12.507Z,-0.23
2018-02-11T06:16:39.967Z,-0.29
2018-02-11T06:19:07.418Z,-0.37
2018-02-11T06:21:34.916Z,-0.32
2018-02-11T06:24:02.405Z,-0.46
2018-02-11T06:26:29.874Z,-0.55
2018-02-11T06:28:57.356Z,-0.65
2018-02-11T06:31:24.811Z,-0.71
2018-02-11T06:33:52.359Z,-0.78
2018-02-11T06:36:19.913Z,-0.64
2018-02-11T06:38:49.550Z,-0.41
2018-02-11T06:41:17.089Z,-0.10
2018-02-11T06:43:44.536Z,0.10
2018-02-11T06:46:11.986Z,0.47
2018-02-11T06:48:40.761Z,0.58
2018-02-11T06:51:08.236Z,0.60
2018-02-11T06:53:35.711Z,0.49
2018-02-11T06:56:03.652Z,0.34
2018-02-11T06:58:31.145Z,0.24
2018-02-11T07:00:58.591Z,0.23
2018-02-11T07:03:26.122Z,0.17
2018-02-11T07:05:53.591Z,0.09
2018-02-11T07:08:21.085Z,0.07
2018-02-11T07:10:48.556Z,0.08
2018-02-11T07:13:16.101Z,0.15
2018-02-11T07:15:44.378Z,0.16
2018-02-11T07:18:12.936Z,0.25
2018-02-11T07:20:40.620Z,0.41
2018-02-11T07:23:08.123Z,0.54
2018-02-11T07:25:35.595Z,0.68
2018-02-11T07:28:03.072Z,0.78
2018-02-11T07:30:30.594Z,0.84
2018-02-11T07:33:01.974Z,0.88
2018-02-11T07:35:29.508Z,0.93
2018-02-11T07:37:56.988Z,0.97
2018-02-11T07:40:24.570Z,1.01
2018-02-11T07:42:52.098Z,1.10
2018-02-11T07:45:19.595Z,1.16
2018-02-11T07:47:47.097Z,1.26
2018-02-11T07:50:14.554Z,1.47
2018-02-11T07:52:44.613Z,1.55
2018-02-11T07:55:12.100Z,1.68
2018-02-11T07:57:39.573Z,1.81
2018-02-11T08:00:07.087Z,1.89
2018-02-11T08:02:34.595Z,2.05
2018-02-11T08:05:02.064Z,2.15
2018-02-11T08:07:29.532Z,2.16
2018-02-11T08:09:57.010Z,2.12
2018-02-11T08:12:27.356Z,2.13
2018-02-11T08:14:54.840Z,2.27
2018-02-11T08:17:22.304Z,2.33
2018-02-11T08:19:49.785Z,2.36
2018-02-11T08:22:17.243Z,2.39
2018-02-11T08:24:45.748Z,2.38
2018-02-11T08:27:13.301Z,2.31
2018-02-11T08:29:40.785Z,2.26
2018-02-11T08:32:08.254Z,2.23
2018-02-11T08:34:35.755Z,2.21
2018-02-11T08:37:03.224Z,2.20
2018-02-11T08:39:30.707Z,2.19
2018-02-11T08:41:58.171Z,2.24
2018-02-11T08:44:25.639Z,2.39
2018-02-11T08:46:53.123Z,2.50
2018-02-11T08:49:20.579Z,2.64
2018-02-11T08:51:48.025Z,2.75
2018-02-11T08:54:15.885Z,2.82
2018-02-11T08:56:43.451Z,2.86
2018-02-11T08:59:10.937Z,2.95
2018-02-11T09:01:38.483Z,2.97
2018-02-11T09:04:05.949Z,3.01
2018-02-11T09:06:33.434Z,3.13
2018-02-11T09:09:00.959Z,3.24
2018-02-11T09:11:28.418Z,3.35
2018-02-11T09:13:55.933Z,3.46
2018-02-11T09:16:23.396Z,3.45
2018-02-11T09:18:50.865Z,3.52
2018-02-11T09:21:18.426Z,3.65
2018-02-11T09:23:45.891Z,3.83
2018-02-11T09:26:13.404Z,3.94
2018-02-11T09:28:41.708Z,4.09
2018-02-11T09:31:09.221Z,4.22
2018-02-11T09:33:36.786Z,4.40
2018-02-11T09:36:04.287Z,4.52
2018-02-11T09:38:31.752Z,4.69
2018-02-11T09:40:59.258Z,4.86
2018-02-11T09:43:26.812Z,5.00
2018-02-11T09:45:54.269Z,5.00
2018-02-11T09:48:21.826Z,4.99
2018-02-11T09:50:51.343Z,4.99
2018-02-11T09:53:19.359Z,5.10
2018-02-11T09:55:46.883Z,5.45
2018-02-11T09:58:14.344Z,5.68
2018-02-11T10:00:46.479Z,6.01
2018-02-11T10:03:14.831Z,6.27
2018-02-11T10:05:42.294Z,6.27
2018-02-11T10:08:09.795Z,6.47
2018-02-11T10:10:37.235Z,6.66
2018-02-11T10:13:04.682Z,6.70
2018-02-11T10:15:32.159Z,6.83
2018-02-11T10:17:59.606Z,6.95
2018-02-11T10:20:27.105Z,7.25
2018-02-11T10:22:54.630Z,7.53
2018-02-11T10:25:22.076Z,7.58
2018-02-11T10:27:49.524Z,7.65
2018-02-11T10:30:17.014Z,7.85
2018-02-11T10:32:44.476Z,8.03
2018-02-11T10:35:11.960Z,8.07
2018-02-11T10:37:39.435Z,7.84
2018-02-11T10:40:06.901Z,7.74
2018-02-11T10:42:34.362Z,7.69
2018-02-11T10:45:01.822Z,7.50
2018-02-11T10:47:29.298Z,7.53
2018-02-11T10:49:56.759Z,7.50
2018-02-11T10:52:24.242Z,7.42
2018-02-11T10:54:51.709Z,7.55
2018-02-11T10:57:19.182Z,7.48
2018-02-11T10:59:46.664Z,7.38
2018-02-11T11:02:14.108Z,7.34
2018-02-11T11:04:41.593Z,7.20
2018-02-11T11:07:09.068Z,7.27
2018-02-11T11:09:36.550Z,7.22
2018-02-11T11:12:04.023Z,7.17
2018-02-11T11:14:31.501Z,7.18
2018-02-11T11:16:59.667Z,7.18
2018-02-11T11:19:27.168Z,7.09
2018-02-11T11:21:54.670Z,7.15
2018-02-11T11:24:22.184Z,7.19
2018-02-11T11:26:52.566Z,7.27
2018-02-11T11:29:20.022Z,7.41
2018-02-11T11:31:47.516Z,7.49
2018-02-11T11:34:14.982Z,7.52
2018-02-11T11:36:42.463Z,7.57
2018-02-11T11:39:10.022Z,7.58
2018-02-11T11:41:37.512Z,7.55
2018-02-11T11:44:04.988Z,7.85
2018-02-11T11:46:32.831Z,7.89
2018-02-11T11:49:00.416Z,8.11
2018-02-11T11:51:27.884Z,8.15
2018-02-11T11:53:55.335Z,8.15
2018-02-11T11:56:22.815Z,8.15
2018-02-11T11:58:50.321Z,8.19
2018-02-11T12:01:18.517Z,8.38
2018-02-11T12:03:45.986Z,8.59
2018-02-11T12:06:13.483Z,8.74
2018-02-11T12:08:40.988Z,8.59
2018-02-11T12:11:08.463Z,8.36
2018-02-11T12:13:35.927Z,8.04
2018-02-11T12:16:03.421Z,7.94
2018-02-11T12:18:30.896Z,7.80
2018-02-11T12:20:58.385Z,7.81
2018-02-11T12:23:25.870Z,7.94
2018-02-11T12:25:53.770Z,8.12
2018-02-11T12:28:21.270Z,8.42
2018-02-11T12:30:48.753Z,8.65
2018-02-11T12:33:17.009Z,8.76
2018-02-11T12:35:44.491Z,8.67
2018-02-11T12:38:11.970Z,8.69
2018-02-11T12:40:40.947Z,8.60
2018-02-11T12:43:08.418Z,8.63
2018-02-11T12:45:36.141Z,8.56
2018-02-11T12:48:03.644Z,8.56
2018-02-11T12:50:31.116Z,8.48
2018-02-11T12:52:58.615Z,8.39
2018-02-11T12:55:26.525Z,8.35
2018-02-11T12:57:54.060Z,8.30
2018-02-11T13:00:21.553Z,8.44
2018-02-11T13:02:49.050Z,8.49
2018-02-11T13:05:16.532Z,8.61
2018-02-11T13:07:44.019Z,8.79
2018-02-11T13:10:11.547Z,9.01
2018-02-11T13:12:40.179Z,8.90
2018-02-11T13:15:07.643Z,8.99
2018-02-11T13:17:35.183Z,8.93
2018-02-11T13:20:02.698Z,9.22
2018-02-11T13:22:30.184Z,9.48
2018-02-11T13:24:57.684Z,9.62
2018-02-11T13:27:25.208Z,9.73
2018-02-11T13:29:52.773Z,9.74
2018-02-11T13:32:20.282Z,9.64
2018-02-11T13:34:47.770Z,9.19
2018-02-11T13:37:15.250Z,9.17
2018-02-11T13:39:42.737Z,9.13
2018-02-11T13:42:10.237Z,9.09
2018-02-11T13:44:37.754Z,8.74
2018-02-11T13:47:05.233Z,8.64
2018-02-11T13:49:32.744Z,8.58
2018-02-11T13:52:00.224Z,8.59
2018-02-11T13:54:27.786Z,8.52
2018-02-11T13:56:55.231Z,8.57
2018-02-11T13:59:23.602Z,8.99
2018-02-11T14:01:51.073Z,9.27
2018-02-11T14:04:18.604Z,9.60
2018-02-11T14:06:46.115Z,9.88
2018-02-11T14:09:13.587Z,9.74
2018-02-11T14:11:41.072Z,9.73
2018-02-11T14:14:08.555Z,9.70
2018-02-11T14:16:37.132Z,9.78
2018-02-11T14:19:04.615Z,9.73
2018-02-11T14:21:32.089Z,9.76
2018-02-11T14:23:59.546Z,10.11
2018-02-11T14:26:27.026Z,10.38
2018-02-11T14:28:54.510Z,10.55
2018-02-11T14:31:21.981Z,10.70
2018-02-11T14:33:49.444Z,10.51
2018-02-11T14:36:16.967Z,10.59
2018-02-11T14:38:44.424Z,10.73
2018-02-11T14:41:11.913Z,10.68
2018-02-11T14:43:39.398Z,10.98
2018-02-11T14:46:06.926Z,10.96
2018-02-11T14:48:34.392Z,10.91
2018-02-11T14:51:01.863Z,10.47
2018-02-11T14:53:29.388Z,10.59
2018-02-11T14:55:56.864Z,10.73
2018-02-11T14:58:24.343Z,10.38
2018-02-11T15:00:51.835Z,10.24
2018-02-11T15:03:19.355Z,10.36
2018-02-11T15:05:46.839Z,10.66
2018-02-11T15:08:14.339Z,10.75
2018-02-11T15:10:41.884Z,10.18
2018-02-11T15:13:09.346Z,9.93
2018-02-11T15:15:36.815Z,9.65
2018-02-11T15:18:04.330Z,9.48
2018-02-11T15:20:31.790Z,9.46
2018-02-11T15:22:59.292Z,9.42
2018-02-11T15:25:26.763Z,9.18
2018-02-11T15:27:54.233Z,8.81
2018-02-11T15:30:21.725Z,8.40
2018-02-11T15:32:49.730Z,8.39
2018-02-11T15:35:17.236Z,7.99
2018-02-11T15:37:44.727Z,8.00
2018-02-11T15:40:12.253Z,7.88
2018-02-11T15:42:40.548Z,7.65
2018-02-11T15:45:08.022Z,7.35
2018-02-11T15:47:35.570Z,6.87
2018-02-11T15:50:03.029Z,6.49
2018-02-11T15:52:30.514Z,6.17
2018-02-11T15:54:58.003Z,5.83
2018-02-11T15:57:25.501Z,5.51
2018-02-11T15:59:53.951Z,5.23
2018-02-11T16:02:21.442Z,4.96
2018-02-11T16:04:48.895Z,4.75
2018-02-11T16:07:16.396Z,4.55
2018-02-11T16:09:44.381Z,4.36
2018-02-11T16:12:11.844Z,4.21
2018-02-11T16:14:39.343Z,4.10
2018-02-11T16:17:06.795Z,3.92
2018-02-11T16:19:34.282Z,3.83
2018-02-11T16:22:01.820Z,3.74
2018-02-11T16:24:29.311Z,3.54
2018-02-11T16:26:56.832Z,3.52
2018-02-11T16:29:24.329Z,3.50
2018-02-11T16:31:51.776Z,3.48
2018-02-11T16:34:19.272Z,3.40
2018-02-11T16:36:46.762Z,3.27
2018-02-11T16:39:14.260Z,3.21
2018-02-11T16:41:41.731Z,3.20
2018-02-11T16:44:09.221Z,3.23
2018-02-11T16:46:36.683Z,3.08
2018-02-11T16:49:04.215Z,3.17
2018-02-11T16:51:31.678Z,3.16
2018-02-11T16:53:59.133Z,3.08
2018-02-11T16:56:26.616Z,3.05
2018-02-11T16:58:54.109Z,2.96
2018-02-11T17:01:21.592Z,3.06
2018-02-11T17:03:49.067Z,3.15
2018-02-11T17:06:16.529Z,3.16
2018-02-11T17:08:44.018Z,3.26
2018-02-11T17:11:11.493Z,3.25
2018-02-11T17:13:38.942Z,3.20
2018-02-11T17:16:06.429Z,3.27
2018-02-11T17:18:33.883Z,3.32
2018-02-11T17:21:01.344Z,3.36
2018-02-11T17:23:28.917Z,3.38
2018-02-11T17:25:56.355Z,3.38
2018-02-11T17:28:23.841Z,3.50
2018-02-11T17:30:51.321Z,3.50
2018-02-11T17:33:18.808Z,3.39
2018-02-11T17:35:46.321Z,3.29
2018-02-11T17:38:13.788Z,3.32
2018-02-11T17:40:41.924Z,3.29
2018-02-11T17:43:09.435Z,3.29
2018-02-11T17:45:36.899Z,3.34
2018-02-11T17:48:04.394Z,3.36
2018-02-11T17:50:31.860Z,3.36
2018-02-11T17:52:59.318Z,3.28
2018-02-11T17:55:26.813Z,3.42
2018-02-11T17:57:54.277Z,3.32
2018-02-11T18:00:21.726Z,3.24
2018-02-11T18:02:50.075Z,3.24
2018-02-11T18:05:17.526Z,3.26
2018-02-11T18:07:45.080Z,3.35
2018-02-11T18:10:12.566Z,3.25
2018-02-11T18:12:40.158Z,3.22
2018-02-11T18:15:07.663Z,3.18
2018-02-11T18:17:35.134Z,3.24
2018-02-11T18:20:02.627Z,3.27
2018-02-11T18:22:30.088Z,3.29
2018-02-11T18:24:57.562Z,3.24
2018-02-11T18:27:25.050Z,3.19
2018-02-11T18:29:52.534Z,3.30
2018-02-11T18:32:20.006Z,3.26
2018-02-11T18:34:47.501Z,3.21
2018-02-11T18:37:14.976Z,3.16
2018-02-11T18:39:42.459Z,3.16
2018-02-11T18:42:09.932Z,3.16
2018-02-11T18:44:37.404Z,3.18
2018-02-11T18:47:04.855Z,3.20
2018-02-11T18:49:32.408Z,3.25
2018-02-11T18:51:59.883Z,3.37
2018-02-11T18:54:27.340Z,3.33
2018-02-11T18:56:54.819Z,3.40
2018-02-11T18:59:22.358Z,3.31
2018-02-11T19:01:49.839Z,3.32
2018-02-11T19:04:17.312Z,3.34
2018-02-11T19:06:44.814Z,3.34
2018-02-11T19:09:12.306Z,3.30
2018-02-11T19:11:39.780Z,3.29
2018-02-11T19:14:07.260Z,3.26
2018-02-11T19:16:34.739Z,3.24
2018-02-11T19:19:02.234Z,3.18
2018-02-11T19:21:29.686Z,3.15
2018-02-11T19:23:57.202Z,3.12
2018-02-11T19:26:24.775Z,3.12
2018-02-11T19:28:52.296Z,3.19
2018-02-11T19:31:19.769Z,3.28
2018-02-11T19:33:47.260Z,3.27
2018-02-11T19:36:14.753Z,3.27
2018-02-11T19:38:42.215Z,3.25
2018-02-11T19:41:09.746Z,3.26
2018-02-11T19:43:37.278Z,3.31
2018-02-11T19:46:04.935Z,3.31
2018-02-11T19:48:32.453Z,3.30
2018-02-11T19:50:59.971Z,3.30
2018-02-11T19:53:27.434Z,3.32
2018-02-11T19:55:54.908Z,3.34
2018-02-11T19:58:22.411Z,3.31
2018-02-11T20:00:49.934Z,3.28
2018-02-11T20:03:17.539Z,3.29
2018-02-11T20:05:45.163Z,3.35
2018-02-11T20:08:12.842Z,3.34
2018-02-11T20:10:40.365Z,3.38
2018-02-11T20:13:07.878Z,3.38
2018-02-11T20:15:35.479Z,3.33
2018-02-11T20:18:03.076Z,3.31
2018-02-11T20:20:30.590Z,3.30
2018-02-11T20:22:58.292Z,3.34
2018-02-11T20:25:25.866Z,3.38
2018-02-11T20:27:53.363Z,3.43
2018-02-11T20:30:20.827Z,3.43
2018-02-11T20:32:48.380Z,3.43
2018-02-11T20:35:15.895Z,3.54
2018-02-11T20:37:43.405Z,3.61
2018-02-11T20:40:10.936Z,3.56
2018-02-11T20:42:38.455Z,3.51
2018-02-11T20:45:06.082Z,3.49
2018-02-11T20:47:33.564Z,3.46
2018-02-11T20:50:01.048Z,3.46
2018-02-11T20:52:28.538Z,3.48
2018-02-11T20:54:56.039Z,3.53
2018-02-11T20:57:23.546Z,3.53
2018-02-11T20:59:51.044Z,3.58
2018-02-11T21:02:18.613Z,3.57
2018-02-11T21:04:46.081Z,3.62
2018-02-11T21:07:13.571Z,3.55
2018-02-11T21:09:41.048Z,3.54
2018-02-11T21:12:08.512Z,3.53
2018-02-11T21:14:36.007Z,3.53
2018-02-11T21:17:03.477Z,3.53
2018-02-11T21:19:30.949Z,3.57
2018-02-11T21:21:58.468Z,3.56
2018-02-11T21:24:26.801Z,3.58
2018-02-11T21:26:54.268Z,3.55
2018-02-11T21:29:21.752Z,3.54
2018-02-11T21:31:49.228Z,3.54
2018-02-11T21:34:16.715Z,3.51
2018-02-11T21:36:44.161Z,3.53
2018-02-11T21:39:11.615Z,3.56
2018-02-11T21:41:39.087Z,3.58
2018-02-11T21:44:06.541Z,3.64
2018-02-11T21:46:34.004Z,3.64
2018-02-11T21:49:01.513Z,3.64
2018-02-11T21:51:28.962Z,3.65
2018-02-11T21:53:56.457Z,3.69
2018-02-11T21:56:23.933Z,3.68
2018-02-11T21:58:51.430Z,3.66
2018-02-11T22:01:19.000Z,3.72
2018-02-11T22:03:46.458Z,3.72
2018-02-11T22:06:13.928Z,3.72
2018-02-11T22:08:41.412Z,3.72
2018-02-11T22:11:08.873Z,3.74
2018-02-11T22:13:36.344Z,3.74
2018-02-11T22:16:03.875Z,3.71
2018-02-11T22:18:31.347Z,3.70
2018-02-11T22:20:58.863Z,3.68
2018-02-11T22:23:26.401Z,3.74
2018-02-11T22:25:53.884Z,3.70
2018-02-11T22:28:21.375Z,3.69
2018-02-11T22:30:48.853Z,3.73
2018-02-11T22:33:17.002Z,3.72
2018-02-11T22:35:44.511Z,3.74
2018-02-11T22:38:12.020Z,3.68
2018-02-11T22:40:39.948Z,3.60
2018-02-11T22:43:07.477Z,3.59
2018-02-11T22:45:34.953Z,3.60
2018-02-11T22:48:02.444Z,3.64
2018-02-11T22:50:29.882Z,3.67
2018-02-11T22:52:57.342Z,3.64
2018-02-11T22:55:24.898Z,3.68
2018-02-11T22:57:52.361Z,3.62
2018-02-11T23:00:19.844Z,3.67
2018-02-11T23:02:47.395Z,3.67
2018-02-11T23:05:14.908Z,3.73
2018-02-11T23:07:42.364Z,3.68
2018-02-11T23:10:09.839Z,3.73
2018-02-11T23:12:38.821Z,3.73
2018-02-11T23:15:06.294Z,3.88
2018-02-11T23:17:33.774Z,3.83
2018-02-11T23:20:01.238Z,3.80
2018-02-11T23:22:28.690Z,3.78
2018-02-11T23:24:56.155Z,3.83
2018-02-11T23:27:23.641Z,3.82
2018-02-11T23:29:51.103Z,3.81
2018-02-11T23:32:18.599Z,3.86
2018-02-11T23:34:47.538Z,3.91
2018-02-11T23:37:15.062Z,3.98
2018-02-11T23:39:43.536Z,4.00
2018-02-11T23:42:11.187Z,4.08
2018-02-11T23:44:38.752Z,4.03
2018-02-11T23:47:06.248Z,3.97
2018-02-11T23:49:33.767Z,3.97
2018-02-11T23:52:01.234Z,3.97
2018-02-11T23:54:28.708Z,3.98
2018-02-11T23:56:56.194Z,4.06
2018-02-11T23:59:23.684Z,4.09
